Time;durP1;ratioP1;P1;durP2;ratioP2;P2;SDS_P1;SDS_P2;PMS_P1;PMS_P2;Temp;Humidity;BMP_temperature;BMP_pressure;BME280_temperature;BME280_humidity;BME280_pressure;Samples;Min_cycle;Max_cycle;Signal;HPM_P1;HPM_P2
2023/05/20 00:00:23;;;;;;;4.50;4.20;;;;;;;19.36;57.21;98911.35;105791;1259;75679;-82
2023/05/20 00:02:50;;;;;;;4.60;4.30;;;;;;;19.36;57.24;98909.37;105839;1258;69745;-82
2023/05/20 00:05:18;;;;;;;5.30;4.90;;;;;;;19.36;57.25;98908.66;105862;1259;74632;-82
2023/05/20 00:07:46;;;;;;;4.70;4.30;;;;;;;19.36;57.25;98902.90;105834;1254;61438;-82
2023/05/20 00:10:13;;;;;;;4.40;4.10;;;;;;;19.35;57.24;98905.82;105877;1259;61407;-82
2023/05/20 00:12:41;;;;;;;4.50;4.10;;;;;;;19.35;57.19;98904.73;105827;1260;75948;-81
2023/05/20 00:15:10;;;;;;;4.90;4.50;;;;;;;19.35;57.24;98900.59;105890;1255;70018;-81
2023/05/20 00:17:38;;;;;;;4.20;3.90;;;;;;;19.35;57.18;98902.05;105750;1256;75002;-81
2023/05/20 00:20:07;;;;;;;5.10;4.70;;;;;;;19.35;57.22;98900.45;105802;1262;61472;-81
2023/05/20 00:22:34;;;;;;;5.10;4.70;;;;;;;19.34;57.32;98897.02;105732;1254;62256;-82
2023/05/20 00:25:02;;;;;;;4.70;4.40;;;;;;;19.34;57.19;98901.77;105786;1254;75934;-82
2023/05/20 00:27:29;;;;;;;5.00;4.50;;;;;;;19.35;57.27;98899.34;105781;1259;70770;-82
2023/05/20 00:29:57;;;;;;;4.50;4.20;;;;;;;19.34;57.25;98894.19;105716;1259;74770;-82
2023/05/20 00:32:24;;;;;;;4.20;3.90;;;;;;;19.34;57.27;98892.52;105682;1262;60982;-82
2023/05/20 00:34:57;;;;;;;5.10;4.70;;;;;;;19.34;57.30;98890.88;105788;1259;62297;-82
2023/05/20 00:37:25;;;;;;;5.00;4.60;;;;;;;19.33;57.21;98885.50;105855;1254;76090;-81
2023/05/20 00:39:52;;;;;;;4.50;4.20;;;;;;;19.33;57.23;98880.45;105850;1259;70597;-82
2023/05/20 00:42:20;;;;;;;4.30;4.00;;;;;;;19.33;57.25;98874.13;105661;1260;74548;-81
2023/05/20 00:44:48;;;;;;;4.70;4.30;;;;;;;19.32;57.16;98878.35;105770;1259;62312;-82
2023/05/20 00:47:16;;;;;;;4.90;4.50;;;;;;;19.32;57.25;98867.34;105894;1259;62415;-82
2023/05/20 00:49:44;;;;;;;4.90;4.50;;;;;;;19.32;57.18;98866.01;105758;1261;76397;-82
2023/05/20 00:52:18;;;;;;;5.00;4.60;;;;;;;19.32;57.29;98865.30;105855;1259;70796;-82
2023/05/20 00:54:45;;;;;;;4.90;4.50;;;;;;;19.32;57.28;98869.48;105812;1260;74928;-81
2023/05/20 00:57:13;;;;;;;5.50;5.10;;;;;;;19.31;57.24;98864.24;107171;1257;62637;-82
2023/05/20 00:59:40;;;;;;;4.70;4.40;;;;;;;19.32;57.23;98867.88;105560;1255;61128;-81
2023/05/20 01:02:11;;;;;;;4.40;4.00;;;;;;;19.31;57.27;98867.90;105605;1260;75926;-81
2023/05/20 01:04:38;;;;;;;4.70;4.30;;;;;;;19.31;57.23;98863.90;105816;1254;71269;-81
2023/05/20 01:07:06;;;;;;;4.90;4.50;;;;;;;19.32;57.24;98864.60;105728;1260;74332;-81
2023/05/20 01:09:33;;;;;;;4.30;4.00;;;;;;;19.31;57.20;98863.37;105550;1259;62301;-81
2023/05/20 01:12:08;;;;;;;5.10;4.70;;;;;;;19.32;57.25;98863.52;105598;1259;61968;-82
2023/05/20 01:14:39;;;;;;;5.10;4.60;;;;;;;19.31;57.24;98865.00;105813;1260;76076;-82
2023/05/20 01:17:09;;;;;;;4.60;4.20;;;;;;;19.31;57.21;98864.30;105802;1259;70693;-82
2023/05/20 01:19:42;;;;;;;5.10;4.70;;;;;;;19.31;57.29;98866.10;105655;1256;73713;-82
2023/05/20 01:22:11;;;;;;;4.50;4.10;;;;;;;19.31;57.20;98860.46;105873;1256;61485;-76
2023/05/20 01:24:44;;;;;;;4.50;4.20;;;;;;;19.31;57.24;98861.43;105859;1259;61955;-75
2023/05/20 01:27:12;;;;;;;5.00;4.60;;;;;;;19.30;57.21;98861.66;105849;1254;74961;-76
2023/05/20 01:29:41;;;;;;;4.50;4.10;;;;;;;19.30;57.19;98857.86;105843;1254;70641;-76
2023/05/20 01:32:11;;;;;;;4.40;4.10;;;;;;;19.30;57.21;98863.34;105854;1268;73825;-76
2023/05/20 01:34:38;;;;;;;4.70;4.40;;;;;;;19.29;57.32;98863.19;105824;1254;62494;-76
2023/05/20 01:37:06;;;;;;;4.90;4.50;;;;;;;19.30;57.18;98867.72;105879;1261;60404;-76
2023/05/20 01:39:36;;;;;;;4.40;4.00;;;;;;;19.29;57.25;98865.60;105842;1261;75893;-76
2023/05/20 01:42:04;;;;;;;4.70;4.30;;;;;;;19.29;57.20;98868.11;105906;1259;69558;-75
2023/05/20 01:44:32;;;;;;;4.90;4.50;;;;;;;19.28;57.26;98863.30;105810;1255;74761;-76
2023/05/20 01:47:00;;;;;;;4.40;4.00;;;;;;;19.28;57.27;98857.13;105866;1263;61046;-76
2023/05/20 01:49:28;;;;;;;5.20;4.70;;;;;;;19.28;57.26;98854.80;105835;1261;61101;-76
2023/05/20 01:51:56;;;;;;;4.60;4.20;;;;;;;19.27;57.20;98849.93;105912;1262;75752;-78
2023/05/20 01:54:24;;;;;;;4.60;4.20;;;;;;;19.28;57.20;98852.45;105915;1254;70733;-77
2023/05/20 01:56:52;;;;;;;4.50;4.20;;;;;;;19.27;57.23;98856.48;105941;1260;74801;-75
2023/05/20 01:59:21;;;;;;;4.90;4.50;;;;;;;19.27;57.20;98852.33;105913;1260;61370;-75
2023/05/20 02:01:49;;;;;;;4.90;4.50;;;;;;;19.27;57.18;98854.48;105930;1254;62119;-75
2023/05/20 02:04:17;;;;;;;4.80;4.40;;;;;;;19.27;57.23;98853.80;105941;1255;75728;-75
2023/05/20 02:06:45;;;;;;;4.80;4.40;;;;;;;19.26;57.21;98852.05;105878;1259;70774;-76
2023/05/20 02:09:14;;;;;;;4.20;3.90;;;;;;;19.27;57.19;98851.99;105867;1259;75004;-76
2023/05/20 02:11:41;;;;;;;4.80;4.40;;;;;;;19.27;57.18;98852.94;105865;1254;62112;-76
2023/05/20 02:14:09;;;;;;;4.90;4.50;;;;;;;19.27;57.21;98855.66;105926;1261;62379;-76
2023/05/20 02:16:37;;;;;;;4.90;4.50;;;;;;;19.27;57.25;98855.48;105805;1259;75841;-76
2023/05/20 02:19:05;;;;;;;5.10;4.60;;;;;;;19.26;57.16;98852.99;105910;1255;70141;-77
2023/05/20 02:21:34;;;;;;;4.50;4.20;;;;;;;19.26;57.14;98849.91;105936;1259;74573;-77
2023/05/20 02:24:01;;;;;;;4.50;4.10;;;;;;;19.26;57.22;98853.91;105935;1258;61428;-77
2023/05/20 02:26:29;;;;;;;5.00;4.60;;;;;;;19.26;57.17;98857.73;105978;1254;62471;-77
2023/05/20 02:28:57;;;;;;;4.60;4.20;;;;;;;19.25;57.23;98852.52;105889;1254;74605;-77
2023/05/20 02:31:25;;;;;;;3.90;3.60;;;;;;;19.25;57.24;98853.40;105953;1260;69941;-77
2023/05/20 02:33:52;;;;;;;4.00;3.70;;;;;;;19.26;57.13;98851.23;105887;1253;74551;-77
2023/05/20 02:36:20;;;;;;;4.10;3.80;;;;;;;19.25;57.20;98852.37;105906;1260;61145;-77
2023/05/20 02:38:47;;;;;;;4.30;4.00;;;;;;;19.25;57.20;98853.63;106000;1258;62341;-77
2023/05/20 02:41:15;;;;;;;4.60;4.20;;;;;;;19.25;57.21;98855.30;105847;1254;75852;-77
2023/05/20 02:43:43;;;;;;;4.70;4.40;;;;;;;19.25;57.22;98854.02;105974;1254;70993;-77
2023/05/20 02:46:11;;;;;;;4.50;4.20;;;;;;;19.25;57.21;98855.84;105971;1255;74783;-77
2023/05/20 02:48:39;;;;;;;4.20;3.90;;;;;;;19.24;57.18;98853.73;105897;1254;61397;-77
2023/05/20 02:51:06;;;;;;;4.50;4.10;;;;;;;19.24;57.26;98849.23;105929;1254;60359;-76
2023/05/20 02:53:34;;;;;;;5.00;4.60;;;;;;;19.24;57.26;98855.01;105909;1254;74898;-75
2023/05/20 02:56:07;;;;;;;4.60;4.30;;;;;;;19.24;57.22;98854.88;105855;1259;70351;-75
2023/05/20 02:58:35;;;;;;;4.20;3.90;;;;;;;19.24;57.24;98859.38;105818;1254;73411;-76
2023/05/20 03:01:03;;;;;;;5.20;4.70;;;;;;;19.24;57.28;98863.59;105854;1254;60934;-76
2023/05/20 03:03:32;;;;;;;5.20;4.80;;;;;;;19.23;57.25;98864.53;105941;1254;61118;-77
2023/05/20 03:05:59;;;;;;;4.80;4.50;;;;;;;19.23;57.27;98866.14;105916;1259;75303;-75
2023/05/20 03:08:27;;;;;;;4.80;4.40;;;;;;;19.23;57.25;98866.70;105896;1254;70957;-76
2023/05/20 03:10:55;;;;;;;4.70;4.40;;;;;;;19.23;57.24;98865.11;105805;1264;74863;-76
2023/05/20 03:13:23;;;;;;;4.60;4.20;;;;;;;19.23;57.28;98867.11;105881;1260;61416;-76
2023/05/20 03:15:50;;;;;;;4.50;4.20;;;;;;;19.23;57.23;98865.45;105908;1260;61226;-78
2023/05/20 03:18:18;;;;;;;4.40;4.00;;;;;;;19.23;57.22;98867.68;105952;1254;74845;-76
2023/05/20 03:20:46;;;;;;;4.50;4.10;;;;;;;19.22;57.20;98868.23;105946;1254;70422;-76
2023/05/20 03:23:13;;;;;;;4.00;3.70;;;;;;;19.22;57.23;98868.80;105795;1255;74602;-76
2023/05/20 03:25:42;;;;;;;3.90;3.60;;;;;;;19.22;57.32;98871.35;105919;1257;61404;-76
2023/05/20 03:28:09;;;;;;;4.20;3.80;;;;;;;19.22;57.25;98869.90;105916;1254;61402;-76
2023/05/20 03:30:37;;;;;;;4.70;4.40;;;;;;;19.22;57.25;98867.34;105955;1254;75708;-76
2023/05/20 03:33:05;;;;;;;4.80;4.40;;;;;;;19.22;57.20;98860.12;105765;1260;69760;-75
2023/05/20 03:35:33;;;;;;;4.30;4.00;;;;;;;19.22;57.26;98860.87;105926;1257;74801;-75
2023/05/20 03:38:01;;;;;;;4.30;4.00;;;;;;;19.22;57.30;98860.70;105944;1259;61521;-75
2023/05/20 03:40:29;;;;;;;4.50;4.20;;;;;;;19.21;57.27;98860.36;105885;1254;62064;-76
2023/05/20 03:42:57;;;;;;;5.00;4.60;;;;;;;19.21;57.27;98864.57;105908;1254;75685;-76
2023/05/20 03:45:25;;;;;;;4.80;4.50;;;;;;;19.21;57.25;98862.25;105961;1260;70528;-76
2023/05/20 03:48:12;;;;;;;5.10;4.70;;;;;;;19.21;57.28;98864.40;105782;1254;74882;-76
2023/05/20 03:50:41;;;;;;;4.70;4.30;;;;;;;19.21;57.30;98861.52;105611;1254;60504;-76
2023/05/20 03:53:10;;;;;;;4.80;4.40;;;;;;;19.20;57.26;98863.38;105815;1254;61320;-77
2023/05/20 03:55:39;;;;;;;4.60;4.30;;;;;;;19.21;57.30;98867.87;105924;1259;75711;-76
2023/05/20 03:58:07;;;;;;;4.90;4.60;;;;;;;19.20;57.31;98871.37;105871;1254;70501;-76
2023/05/20 04:00:35;;;;;;;5.00;4.60;;;;;;;19.21;57.30;98878.04;105824;1262;74777;-76
2023/05/20 04:03:04;;;;;;;5.10;4.70;;;;;;;19.20;57.33;98879.71;105782;1254;61408;-76
2023/05/20 04:05:32;;;;;;;4.50;4.20;;;;;;;19.21;57.36;98882.79;105867;1254;62108;-76
2023/05/20 04:08:00;;;;;;;5.00;4.60;;;;;;;19.20;57.29;98881.38;105934;1258;75851;-76
2023/05/20 04:10:29;;;;;;;4.90;4.50;;;;;;;19.20;57.27;98883.17;105938;1259;69556;-76
2023/05/20 04:12:57;;;;;;;5.00;4.60;;;;;;;19.20;57.34;98885.02;105600;1256;73648;-76
2023/05/20 04:15:24;;;;;;;5.00;4.60;;;;;;;19.19;57.33;98883.77;105857;1257;61610;-76
2023/05/20 04:17:54;;;;;;;4.90;4.50;;;;;;;19.19;57.42;98885.27;105975;1254;62367;-76
2023/05/20 04:20:23;;;;;;;5.00;4.60;;;;;;;19.20;57.34;98888.28;105957;1260;74724;-77
2023/05/20 04:22:53;;;;;;;5.70;5.30;;;;;;;19.20;57.34;98890.66;105926;1259;70669;-77
2023/05/20 04:25:21;;;;;;;4.80;4.40;;;;;;;19.19;57.39;98887.24;105894;1261;73325;-76
2023/05/20 04:27:49;;;;;;;4.60;4.30;;;;;;;19.19;57.31;98888.14;105934;1259;61003;-76
2023/05/20 04:30:17;;;;;;;4.80;4.40;;;;;;;19.20;57.40;98882.31;105870;1254;62527;-76
2023/05/20 04:32:44;;;;;;;4.80;4.40;;;;;;;19.20;57.40;98885.41;105868;1255;76032;-76
2023/05/20 04:35:13;;;;;;;4.80;4.40;;;;;;;19.19;57.44;98889.45;105875;1254;70525;-76
2023/05/20 04:37:49;;;;;;;6.10;5.60;;;;;;;19.19;57.49;98887.98;105880;1255;74653;-75
2023/05/20 04:40:17;;;;;;;4.80;4.40;;;;;;;19.19;57.41;98890.38;106036;1260;61604;-76
2023/05/20 04:42:45;;;;;;;4.70;4.40;;;;;;;19.19;57.44;98893.84;105895;1260;61370;-76
2023/05/20 04:45:14;;;;;;;4.80;4.50;;;;;;;19.19;57.35;98895.30;105920;1258;76096;-76
2023/05/20 04:47:43;;;;;;;5.60;5.00;;;;;;;19.19;57.47;98893.84;105894;1253;70669;-76
2023/05/20 04:50:11;;;;;;;5.00;4.60;;;;;;;19.18;57.42;98890.27;105953;1256;74950;-75
2023/05/20 04:52:44;;;;;;;5.60;5.10;;;;;;;19.18;57.43;98886.58;105964;1258;61238;-75
2023/05/20 04:55:12;;;;;;;5.20;4.80;;;;;;;19.18;57.46;98886.83;105980;1257;61246;-75
2023/05/20 04:57:40;;;;;;;6.00;5.40;;;;;;;19.18;57.41;98887.41;105873;1258;75908;-76
2023/05/20 05:00:10;;;;;;;5.10;4.60;;;;;;;19.18;57.49;98888.11;105801;1254;69768;-75
2023/05/20 05:02:38;;;;;;;5.20;4.80;;;;;;;19.18;57.42;98889.04;105823;1261;72659;-76
2023/05/20 05:05:06;;;;;;;5.10;4.70;;;;;;;19.18;57.49;98884.68;105899;1260;61252;-75
2023/05/20 05:07:34;;;;;;;5.20;4.80;;;;;;;19.17;57.43;98884.16;105870;1254;62307;-76
2023/05/20 05:10:02;;;;;;;5.20;4.80;;;;;;;19.17;57.47;98883.64;105746;1260;76043;-77
2023/05/20 05:12:31;;;;;;;5.10;4.70;;;;;;;19.17;57.43;98881.84;105857;1254;70771;-76
2023/05/20 05:14:58;;;;;;;5.00;4.60;;;;;;;19.17;57.46;98877.86;105848;1258;73898;-76
2023/05/20 05:17:27;;;;;;;5.50;5.10;;;;;;;19.17;57.44;98882.79;105886;1254;62036;-76
2023/05/20 05:19:56;;;;;;;5.50;5.10;;;;;;;19.17;57.58;98880.38;105887;1259;61064;-76
2023/05/20 05:22:25;;;;;;;4.80;4.40;;;;;;;19.17;57.50;98878.58;105840;1254;75836;-76
2023/05/20 05:24:54;;;;;;;5.60;5.20;;;;;;;19.17;57.50;98881.49;105848;1260;69682;-76
2023/05/20 05:27:22;;;;;;;5.70;5.20;;;;;;;19.17;57.48;98882.19;105799;1257;74345;-76
2023/05/20 05:29:49;;;;;;;5.80;5.30;;;;;;;19.17;57.50;98879.48;105913;1260;60570;-76
2023/05/20 05:32:17;;;;;;;5.30;4.80;;;;;;;19.17;57.44;98884.42;105907;1254;62166;-77
2023/05/20 05:34:45;;;;;;;5.10;4.70;;;;;;;19.16;57.46;98892.45;105994;1260;75965;-77
2023/05/20 05:37:13;;;;;;;4.90;4.60;;;;;;;19.17;57.56;98892.22;105905;1254;69129;-77
2023/05/20 05:39:41;;;;;;;5.30;4.90;;;;;;;19.16;57.45;98890.23;105898;1258;74760;-77
2023/05/20 05:42:08;;;;;;;5.60;5.20;;;;;;;19.17;57.52;98891.67;105927;1254;62278;-77
2023/05/20 05:44:37;;;;;;;5.50;5.00;;;;;;;19.16;57.42;98892.96;105922;1254;62107;-77
2023/05/20 05:47:06;;;;;;;5.70;5.30;;;;;;;19.17;57.46;98895.68;105989;1258;75867;-77
2023/05/20 05:49:34;;;;;;;5.10;4.70;;;;;;;19.16;57.46;98897.86;105700;1254;71071;-76
2023/05/20 05:52:02;;;;;;;5.70;5.30;;;;;;;19.17;57.50;98898.58;105838;1258;75285;-76
2023/05/20 05:54:29;;;;;;;5.40;4.90;;;;;;;19.17;57.52;98900.92;105693;1259;61332;-77
2023/05/20 05:56:57;;;;;;;5.20;4.80;;;;;;;19.16;57.47;98896.98;105679;1254;62003;-76
2023/05/20 05:59:26;;;;;;;5.70;5.20;;;;;;;19.16;57.47;98900.09;105833;1260;74898;-76
2023/05/20 06:01:54;;;;;;;5.10;4.70;;;;;;;19.17;57.56;98897.30;105814;1260;69328;-77
2023/05/20 06:04:22;;;;;;;4.80;4.40;;;;;;;19.17;57.46;98897.31;105898;1254;74670;-76
2023/05/20 06:06:52;;;;;;;5.20;4.80;;;;;;;19.16;57.45;98899.32;105727;1259;61156;-77
2023/05/20 06:09:20;;;;;;;5.80;5.30;;;;;;;19.17;57.49;98903.30;105821;1261;60948;-76
2023/05/20 06:11:47;;;;;;;5.00;4.60;;;;;;;19.17;57.52;98899.27;105855;1255;75779;-77
2023/05/20 06:14:15;;;;;;;5.40;5.00;;;;;;;19.16;57.52;98897.34;105875;1255;69467;-76
2023/05/20 06:16:44;;;;;;;5.80;5.40;;;;;;;19.16;57.56;98898.05;105809;1254;74877;-77
2023/05/20 06:19:12;;;;;;;5.00;4.60;;;;;;;19.16;57.48;98894.98;105713;1254;62037;-77
2023/05/20 06:21:39;;;;;;;5.30;4.90;;;;;;;19.15;57.51;98898.88;105832;1255;62426;-77
2023/05/20 06:24:07;;;;;;;5.80;5.40;;;;;;;19.16;57.55;98900.24;105814;1253;74767;-77
2023/05/20 06:26:35;;;;;;;5.60;5.20;;;;;;;19.16;57.46;98896.80;105678;1260;70561;-77
2023/05/20 06:29:04;;;;;;;5.60;5.20;;;;;;;19.15;57.54;98901.77;105807;1261;72646;-77
2023/05/20 06:31:32;;;;;;;5.70;5.20;;;;;;;19.15;57.49;98898.49;105857;1254;61118;-77
2023/05/20 06:34:01;;;;;;;5.30;4.90;;;;;;;19.17;57.49;98900.95;105949;1254;62762;-76
2023/05/20 06:36:29;;;;;;;5.20;4.80;;;;;;;19.16;57.61;98892.09;105719;1254;75200;-77
2023/05/20 06:39:00;;;;;;;5.50;5.10;;;;;;;19.16;57.50;98891.76;105782;1254;70646;-77
2023/05/20 06:41:28;;;;;;;5.10;4.70;;;;;;;19.16;57.48;98889.52;105674;1254;74593;-77
2023/05/20 06:43:56;;;;;;;5.20;4.80;;;;;;;19.15;57.54;98884.34;105706;1259;62239;-77
2023/05/20 06:46:49;;;;;;;5.10;4.70;;;;;;;19.16;57.64;98883.92;105789;1254;61381;-77
2023/05/20 06:49:17;;;;;;;5.10;4.70;;;;;;;19.16;57.56;98890.12;105915;1258;75466;-76
2023/05/20 06:51:45;;;;;;;5.70;5.30;;;;;;;19.15;57.57;98890.15;105944;1254;70788;-77
2023/05/20 06:54:16;;;;;;;5.70;5.30;;;;;;;19.16;57.57;98891.92;105962;1254;73760;-79
2023/05/20 06:56:44;;;;;;;4.90;4.50;;;;;;;19.16;57.56;98897.35;105755;1256;61459;-77
2023/05/20 06:59:14;;;;;;;5.30;4.80;;;;;;;19.15;57.57;98893.97;105735;1257;61595;-77
2023/05/20 07:01:42;;;;;;;5.50;5.00;;;;;;;19.15;57.56;98895.23;105838;1254;76173;-79
2023/05/20 07:04:11;;;;;;;4.90;4.50;;;;;;;19.16;57.57;98896.83;105965;1254;70538;-76
2023/05/20 07:06:38;;;;;;;5.40;5.00;;;;;;;19.16;57.63;98894.14;105623;1260;170404;-79
2023/05/20 07:09:06;;;;;;;5.00;4.70;;;;;;;19.16;57.60;98891.01;105936;1258;61302;-78
2023/05/20 07:11:35;;;;;;;5.20;4.80;;;;;;;19.16;57.57;98888.83;105810;1254;62078;-78
2023/05/20 07:14:03;;;;;;;4.90;4.50;;;;;;;19.15;57.56;98891.96;105932;1258;76242;-77
2023/05/20 07:16:33;;;;;;;4.90;4.50;;;;;;;19.16;57.50;98891.92;105946;1254;70699;-78
2023/05/20 07:19:03;;;;;;;5.30;4.90;;;;;;;19.15;57.54;98893.79;105714;1263;74532;-77
2023/05/20 07:21:32;;;;;;;5.30;4.90;;;;;;;19.16;57.57;98890.84;105963;1254;62380;-78
2023/05/20 07:24:20;;;;;;;5.20;4.80;;;;;;;19.16;57.62;98894.42;105789;1254;62156;-77
2023/05/20 07:26:48;;;;;;;5.10;4.70;;;;;;;19.16;57.62;98894.65;105752;1254;76031;-77
2023/05/20 07:29:15;;;;;;;5.20;4.80;;;;;;;19.17;57.60;98896.05;105937;1254;70967;-76
2023/05/20 07:31:43;;;;;;;5.60;5.10;;;;;;;19.16;57.55;98895.72;105792;1257;74760;-78
2023/05/20 07:34:11;;;;;;;5.10;4.70;;;;;;;19.16;57.54;98898.44;105842;1256;62068;-78
2023/05/20 07:36:40;;;;;;;5.10;4.70;;;;;;;19.16;57.55;98893.16;105902;1259;61201;-77
2023/05/20 07:39:09;;;;;;;4.80;4.40;;;;;;;19.16;57.54;98889.00;105784;1254;75973;-75
2023/05/20 07:41:41;;;;;;;4.70;4.30;;;;;;;19.15;57.58;98886.69;105739;1254;70613;-76
2023/05/20 07:44:12;;;;;;;5.30;4.90;;;;;;;19.16;57.58;98886.30;105897;1254;75109;-77
2023/05/20 07:46:43;;;;;;;4.50;4.20;;;;;;;19.16;57.40;98889.35;105845;1254;62306;-78
2023/05/20 07:49:12;;;;;;;5.20;4.80;;;;;;;19.16;57.50;98891.38;105745;1254;61291;-78
2023/05/20 07:51:40;;;;;;;5.20;4.80;;;;;;;19.16;57.63;98887.77;105861;1260;74059;-77
2023/05/20 07:54:09;;;;;;;5.10;4.70;;;;;;;19.16;57.57;98888.08;105629;1254;70709;-77
2023/05/20 07:56:37;;;;;;;5.10;4.70;;;;;;;19.16;57.56;98886.14;105892;1257;74919;-77
2023/05/20 07:59:06;;;;;;;4.90;4.50;;;;;;;19.16;57.63;98884.11;105761;1257;62448;-77
2023/05/20 08:01:40;;;;;;;5.80;4.90;;;;;;;19.17;57.63;98884.05;105694;1253;61278;-77
2023/05/20 08:04:09;;;;;;;5.00;4.60;;;;;;;19.16;57.69;98882.30;106029;1257;75642;-77
2023/05/20 08:06:38;;;;;;;5.00;4.60;;;;;;;19.16;57.73;98884.08;105991;1258;70889;-79
2023/05/20 08:09:11;;;;;;;5.00;4.70;;;;;;;19.16;57.63;98883.02;105940;1259;74810;-77
2023/05/20 08:11:43;;;;;;;5.20;4.80;;;;;;;19.17;57.56;98875.36;105923;1258;61295;-77
2023/05/20 08:14:13;;;;;;;5.30;4.90;;;;;;;19.16;57.65;98875.23;106012;1258;62268;-78
2023/05/20 08:16:42;;;;;;;5.20;4.80;;;;;;;19.16;57.68;98875.02;105886;1253;74351;-78
2023/05/20 08:19:10;;;;;;;4.60;4.20;;;;;;;19.17;57.62;98875.90;105965;1253;70784;-75
2023/05/20 08:21:38;;;;;;;4.80;4.50;;;;;;;19.16;57.63;98872.51;105941;1256;74549;-78
2023/05/20 08:24:06;;;;;;;5.50;5.00;;;;;;;19.16;57.62;98871.58;105838;1253;61478;-77
2023/05/20 08:26:34;;;;;;;6.70;5.10;;;;;;;19.16;57.65;98867.74;105942;1253;61407;-76
2023/05/20 08:29:02;;;;;;;5.10;4.70;;;;;;;19.16;57.63;98863.78;105948;1257;76032;-77
2023/05/20 08:31:30;;;;;;;5.20;4.80;;;;;;;19.16;57.64;98861.21;105831;1253;70549;-77
2023/05/20 08:33:59;;;;;;;5.10;4.70;;;;;;;19.17;57.67;98860.43;106002;1253;73372;-78
2023/05/20 08:36:27;;;;;;;5.60;5.20;;;;;;;19.16;57.53;98859.40;105949;1258;61406;-77
2023/05/20 08:38:55;;;;;;;5.90;5.10;;;;;;;19.16;57.68;98861.02;105874;1258;61237;-77
2023/05/20 08:41:24;;;;;;;5.80;5.30;;;;;;;19.16;57.67;98861.39;105849;1253;74670;-78
2023/05/20 08:43:52;;;;;;;5.20;4.80;;;;;;;19.16;57.74;98861.76;105753;1254;71198;-77
2023/05/20 08:46:20;;;;;;;5.50;4.90;;;;;;;19.16;57.77;98857.94;105713;1256;73273;-77
2023/05/20 08:48:48;;;;;;;5.10;4.70;;;;;;;19.16;57.78;98858.67;105587;1253;62304;-77
2023/05/20 08:51:22;;;;;;;5.70;5.30;;;;;;;19.16;57.68;98860.66;105985;1253;62345;-83
2023/05/20 08:53:54;;;;;;;5.00;4.60;;;;;;;19.16;57.72;98862.49;106038;1254;74787;-83
2023/05/20 08:56:25;;;;;;;5.80;5.40;;;;;;;19.16;57.72;98862.70;105872;1253;69747;-83
2023/05/20 08:58:57;;;;;;;5.30;4.90;;;;;;;19.16;57.75;98864.10;106236;1254;73455;-83
2023/05/20 09:01:24;;;;;;;5.50;5.10;;;;;;;19.17;57.82;98864.82;106090;1253;62523;-83
2023/05/20 09:03:52;;;;;;;5.70;5.20;;;;;;;19.17;57.80;98865.51;106370;1253;60859;-83
2023/05/20 09:06:20;;;;;;;5.80;5.30;;;;;;;19.17;57.76;98863.70;105889;1255;74608;-78
2023/05/20 09:08:50;;;;;;;5.50;5.00;;;;;;;19.17;57.77;98860.20;105999;1258;70440;-77
2023/05/20 09:11:18;;;;;;;5.70;5.30;;;;;;;19.18;57.81;98858.74;106010;1255;74653;-78
2023/05/20 09:13:46;;;;;;;6.10;5.60;;;;;;;19.18;57.89;98862.01;106079;1253;62277;-77
2023/05/20 09:16:14;;;;;;;5.80;5.40;;;;;;;19.18;57.81;98857.05;105964;1253;61458;-77
2023/05/20 09:18:42;;;;;;;6.20;5.80;;;;;;;19.18;57.75;98857.29;105994;1253;75726;-77
2023/05/20 09:21:10;;;;;;;6.00;5.60;;;;;;;19.18;57.84;98854.13;105977;1253;69599;-77
2023/05/20 09:23:38;;;;;;;5.60;5.20;;;;;;;19.18;57.83;98847.40;105797;1253;73788;-77
2023/05/20 09:26:06;;;;;;;6.70;6.20;;;;;;;19.18;57.81;98845.61;105973;1253;62771;-77
2023/05/20 09:28:37;;;;;;;5.90;5.40;;;;;;;19.18;57.75;98841.97;105949;1253;62038;-79
2023/05/20 09:31:05;;;;;;;6.30;5.90;;;;;;;19.18;57.74;98843.39;105879;1256;75904;-78
2023/05/20 09:33:34;;;;;;;5.80;5.40;;;;;;;19.18;57.72;98840.17;105892;1253;70695;-76
2023/05/20 09:36:08;;;;;;;5.90;5.40;;;;;;;19.18;57.76;98838.53;105925;1253;74696;-77
2023/05/20 09:38:38;;;;;;;6.30;5.80;;;;;;;19.18;57.79;98841.59;105883;1254;61214;-77
2023/05/20 09:41:14;;;;;;;5.60;5.10;;;;;;;19.18;57.73;98842.00;105974;1253;62450;-77
2023/05/20 09:43:43;;;;;;;6.20;5.70;;;;;;;19.18;57.78;98835.98;106114;1258;75952;-83
2023/05/20 09:46:10;;;;;;;6.00;5.50;;;;;;;19.18;57.77;98838.53;106274;1253;70984;-82
2023/05/20 09:48:38;;;;;;;6.30;5.80;;;;;;;19.18;57.77;98838.70;106139;1253;73888;-82
2023/05/20 09:51:07;;;;;;;5.40;5.00;;;;;;;19.18;57.78;98842.13;106254;1253;62224;-83
2023/05/20 09:53:35;;;;;;;6.30;5.80;;;;;;;19.18;57.78;98839.79;106355;1253;62238;-82
2023/05/20 09:56:03;;;;;;;6.10;5.60;;;;;;;19.18;57.70;98832.88;106013;1253;74663;-82
2023/05/20 09:58:31;;;;;;;6.00;5.50;;;;;;;19.18;57.69;98831.26;105999;1253;71021;-82
2023/05/20 10:00:58;;;;;;;5.30;4.90;;;;;;;19.18;57.71;98830.34;105836;1253;74838;-83
2023/05/20 10:03:27;;;;;;;5.60;5.20;;;;;;;19.19;57.74;98829.92;106144;1253;61083;-82
2023/05/20 10:06:27;;;;;;;5.70;5.20;;;;;;;19.19;57.65;98825.73;106447;1253;62258;-83
2023/05/20 10:09:24;;;;;;;6.30;5.80;;;;;;;19.19;57.74;98826.42;106286;1253;75812;-82
2023/05/20 10:12:13;;;;;;;6.40;5.80;;;;;;;19.20;57.67;98823.13;106566;1253;70592;-83
2023/05/20 10:14:50;;;;;;;5.30;4.90;;;;;;;19.20;57.63;98817.48;106270;1253;73701;-82
2023/05/20 10:18:00;;;;;;;6.00;5.60;;;;;;;19.20;57.70;98810.60;106391;1258;61613;-82
2023/05/20 10:20:28;;;;;;;6.40;6.00;;;;;;;19.20;57.69;98802.95;105831;1264;61230;-83
2023/05/20 10:22:56;;;;;;;5.70;5.20;;;;;;;19.20;57.64;98796.94;105711;1260;74973;-83
2023/05/20 10:25:27;;;;;;;5.90;5.40;;;;;;;19.20;57.61;98792.05;105911;1253;70503;-84
2023/05/20 10:28:07;;;;;;;6.20;5.70;;;;;;;19.20;57.63;98795.09;106184;1253;73748;-82
2023/05/20 10:30:36;;;;;;;5.80;5.30;;;;;;;19.21;57.67;98794.02;106025;1254;60550;-83
2023/05/20 10:33:05;;;;;;;6.40;5.90;;;;;;;19.21;57.68;98794.90;106308;1253;61767;-83
2023/05/20 10:35:34;;;;;;;5.60;5.10;;;;;;;19.21;57.61;98795.00;106085;1253;74916;-83
2023/05/20 10:38:11;;;;;;;6.00;5.50;;;;;;;19.21;57.62;98794.46;106110;1255;69946;-78
2023/05/20 10:40:42;;;;;;;6.00;5.50;;;;;;;19.21;57.62;98787.92;105776;1259;74517;-77
2023/05/20 10:43:11;;;;;;;5.70;5.30;;;;;;;19.21;57.59;98785.20;105962;1253;61162;-82
2023/05/20 10:45:52;;;;;;;5.70;5.30;;;;;;;19.22;57.61;98780.25;106542;1254;62623;-83
2023/05/20 10:48:27;;;;;;;6.00;5.50;;;;;;;19.22;57.59;98778.94;106291;1258;75888;-83
2023/05/20 10:51:02;;;;;;;6.20;5.70;;;;;;;19.22;57.56;98776.41;106791;1257;70538;-83
2023/05/20 10:53:41;;;;;;;5.80;5.30;;;;;;;19.22;57.54;98776.25;106590;1254;74982;-82
2023/05/20 10:56:21;;;;;;;5.70;5.30;;;;;;;19.22;57.57;98777.83;106469;1253;60495;-83
2023/05/20 10:58:50;;;;;;;5.90;5.40;;;;;;;19.23;57.56;98775.45;106412;1253;61293;-82
2023/05/20 11:01:22;;;;;;;5.80;5.40;;;;;;;19.23;57.65;98769.28;106451;1253;74305;-82
2023/05/20 11:03:50;;;;;;;6.00;5.60;;;;;;;19.23;57.58;98767.98;106566;1253;69707;-82
2023/05/20 11:06:18;;;;;;;5.60;5.20;;;;;;;19.24;57.59;98778.45;106349;1256;74609;-83
2023/05/20 11:08:46;;;;;;;6.30;5.80;;;;;;;19.23;57.57;98779.38;105978;1254;61316;-83
2023/05/20 11:11:14;;;;;;;5.70;5.30;;;;;;;19.24;57.55;98776.97;106332;1253;62003;-84
2023/05/20 11:13:41;;;;;;;5.50;5.00;;;;;;;19.24;57.62;98775.63;106290;1259;74576;-83
2023/05/20 11:16:09;;;;;;;6.00;5.60;;;;;;;19.25;57.54;98768.33;106451;1253;69848;-83
2023/05/20 11:18:37;;;;;;;5.60;5.20;;;;;;;19.25;57.61;98768.70;106389;1253;73774;-85
2023/05/20 11:21:06;;;;;;;5.50;5.10;;;;;;;19.25;57.49;98762.67;106332;1253;62458;-83
2023/05/20 11:23:34;;;;;;;5.50;5.10;;;;;;;19.26;57.58;98757.55;106056;1253;62589;-83
2023/05/20 11:26:04;;;;;;;6.60;6.00;;;;;;;19.26;57.57;98761.52;106417;1254;76032;-83
2023/05/20 11:28:32;;;;;;;5.70;5.20;;;;;;;19.26;57.55;98759.18;106028;1258;69327;-77
2023/05/20 11:31:00;;;;;;;6.10;5.60;;;;;;;19.26;57.56;98759.70;105760;1261;73823;-78
2023/05/20 11:33:29;;;;;;;5.60;5.20;;;;;;;19.26;57.51;98756.80;105870;1253;62404;-77